sensor_id;sensor_type;location;lat;lon;timestamp;temperature;humidity
23010;DHT22;11671;49.990;8.028;2023-02-28T00:00:28;2.30;99.90
23010;DHT22;11671;49.990;8.028;2023-02-28T00:02:54;2.30;99.90
23010;DHT22;11671;49.990;8.028;2023-02-28T00:05:22;2.30;99.90
23010;DHT22;11671;49.990;8.028;2023-02-28T00:07:48;2.30;99.90
23010;DHT22;11671;49.990;8.028;2023-02-28T00:10:18;2.20;99.90
23010;DHT22;11671;49.990;8.028;2023-02-28T00:12:47;2.20;99.90
23010;DHT22;11671;49.990;8.028;2023-02-28T00:15:12;2.30;99.90
23010;DHT22;11671;49.990;8.028;2023-02-28T00:17:38;2.30;99.90
23010;DHT22;11671;49.990;8.028;2023-02-28T00:20:05;2.20;99.90
23010;DHT22;11671;49.990;8.028;2023-02-28T00:22:39;2.20;99.90
23010;DHT22;11671;49.990;8.028;2023-02-28T00:25:06;2.20;99.90
23010;DHT22;11671;49.990;8.028;2023-02-28T00:27:33;2.20;99.90
23010;DHT22;11671;49.990;8.028;2023-02-28T00:29:58;2.20;99.90
23010;DHT22;11671;49.990;8.028;2023-02-28T00:32:24;2.20;99.90
23010;DHT22;11671;49.990;8.028;2023-02-28T00:34:50;2.30;99.90
23010;DHT22;11671;49.990;8.028;2023-02-28T00:37:15;2.30;99.90
23010;DHT22;11671;49.990;8.028;2023-02-28T00:39:41;2.30;99.90
23010;DHT22;11671;49.990;8.028;2023-02-28T00:42:07;2.30;99.90
23010;DHT22;11671;49.990;8.028;2023-02-28T00:44:33;2.30;99.90
23010;DHT22;11671;49.990;8.028;2023-02-28T00:46:58;2.30;99.90
23010;DHT22;11671;49.990;8.028;2023-02-28T00:49:25;2.40;99.90
23010;DHT22;11671;49.990;8.028;2023-02-28T00:51:52;2.40;99.90
23010;DHT22;11671;49.990;8.028;2023-02-28T00:54:18;2.40;99.90
23010;DHT22;11671;49.990;8.028;2023-02-28T00:56:43;2.40;99.90
23010;DHT22;11671;49.990;8.028;2023-02-28T00:59:09;2.40;99.90
23010;DHT22;11671;49.990;8.028;2023-02-28T01:01:35;2.40;99.90
23010;DHT22;11671;49.990;8.028;2023-02-28T01:04:00;2.40;99.90
23010;DHT22;11671;49.990;8.028;2023-02-28T01:06:26;2.50;99.90
23010;DHT22;11671;49.990;8.028;2023-02-28T01:08:52;2.50;99.90
23010;DHT22;11671;49.990;8.028;2023-02-28T01:11:18;2.50;99.90
23010;DHT22;11671;49.990;8.028;2023-02-28T01:13:45;2.50;99.90
23010;DHT22;11671;49.990;8.028;2023-02-28T01:16:11;2.50;99.90
23010;DHT22;11671;49.990;8.028;2023-02-28T01:18:37;2.40;99.90
23010;DHT22;11671;49.990;8.028;2023-02-28T01:21:09;2.40;99.90
23010;DHT22;11671;49.990;8.028;2023-02-28T01:23:35;2.50;99.90
23010;DHT22;11671;49.990;8.028;2023-02-28T01:26:20;2.40;99.90
23010;DHT22;11671;49.990;8.028;2023-02-28T01:28:46;2.50;99.90
23010;DHT22;11671;49.990;8.028;2023-02-28T01:31:12;2.40;99.90
23010;DHT22;11671;49.990;8.028;2023-02-28T01:33:38;2.40;99.90
23010;DHT22;11671;49.990;8.028;2023-02-28T01:36:30;2.40;99.90
23010;DHT22;11671;49.990;8.028;2023-02-28T01:38:55;2.40;99.90
23010;DHT22;11671;49.990;8.028;2023-02-28T01:41:25;2.40;99.90
23010;DHT22;11671;49.990;8.028;2023-02-28T01:44:53;2.40;99.90
23010;DHT22;11671;49.990;8.028;2023-02-28T01:46:51;2.40;99.90
23010;DHT22;11671;49.990;8.028;2023-02-28T01:49:17;2.30;99.90
23010;DHT22;11671;49.990;8.028;2023-02-28T01:51:46;2.30;99.90
23010;DHT22;11671;49.990;8.028;2023-02-28T01:54:20;2.20;99.90
23010;DHT22;11671;49.990;8.028;2023-02-28T01:56:51;2.10;99.90
23010;DHT22;11671;49.990;8.028;2023-02-28T01:59:27;2.10;99.90
23010;DHT22;11671;49.990;8.028;2023-02-28T02:01:55;2.10;99.90
23010;DHT22;11671;49.990;8.028;2023-02-28T02:04:21;2.10;99.90
23010;DHT22;11671;49.990;8.028;2023-02-28T02:06:49;2.00;99.90
23010;DHT22;11671;49.990;8.028;2023-02-28T02:09:15;1.90;99.90
23010;DHT22;11671;49.990;8.028;2023-02-28T02:11:42;1.90;99.90
23010;DHT22;11671;49.990;8.028;2023-02-28T02:14:22;1.90;99.90
23010;DHT22;11671;49.990;8.028;2023-02-28T02:19:53;1.90;99.90
23010;DHT22;11671;49.990;8.028;2023-02-28T02:27:59;1.80;99.90
23010;DHT22;11671;49.990;8.028;2023-02-28T02:36:30;1.80;99.90
23010;DHT22;11671;49.990;8.028;2023-02-28T02:41:58;1.70;99.90
23010;DHT22;11671;49.990;8.028;2023-02-28T02:44:34;1.70;99.90
23010;DHT22;11671;49.990;8.028;2023-02-28T02:47:08;1.70;99.90
23010;DHT22;11671;49.990;8.028;2023-02-28T02:49:36;1.60;99.90
23010;DHT22;11671;49.990;8.028;2023-02-28T02:52:06;1.60;99.90
23010;DHT22;11671;49.990;8.028;2023-02-28T02:54:35;1.50;99.90
23010;DHT22;11671;49.990;8.028;2023-02-28T02:57:06;1.50;99.90
23010;DHT22;11671;49.990;8.028;2023-02-28T02:59:36;1.40;99.90
23010;DHT22;11671;49.990;8.028;2023-02-28T03:02:05;1.40;99.90
23010;DHT22;11671;49.990;8.028;2023-02-28T03:04:36;1.40;99.90
23010;DHT22;11671;49.990;8.028;2023-02-28T03:07:03;1.30;99.90
23010;DHT22;11671;49.990;8.028;2023-02-28T03:09:33;1.30;99.90
23010;DHT22;11671;49.990;8.028;2023-02-28T03:11:58;1.30;99.90
23010;DHT22;11671;49.990;8.028;2023-02-28T03:17:17;1.30;99.90
23010;DHT22;11671;49.990;8.028;2023-02-28T03:20:02;1.20;99.90
23010;DHT22;11671;49.990;8.028;2023-02-28T03:22:45;1.30;99.90
23010;DHT22;11671;49.990;8.028;2023-02-28T03:31:08;1.10;99.90
23010;DHT22;11671;49.990;8.028;2023-02-28T03:33:48;1.10;99.90
23010;DHT22;11671;49.990;8.028;2023-02-28T03:36:32;1.00;99.90
23010;DHT22;11671;49.990;8.028;2023-02-28T03:39:04;1.00;99.90
23010;DHT22;11671;49.990;8.028;2023-02-28T03:41:45;1.00;99.90
23010;DHT22;11671;49.990;8.028;2023-02-28T03:44:37;1.00;99.90
23010;DHT22;11671;49.990;8.028;2023-02-28T03:47:13;1.00;99.90
23010;DHT22;11671;49.990;8.028;2023-02-28T03:49:50;0.90;99.90
23010;DHT22;11671;49.990;8.028;2023-02-28T03:52:21;0.90;99.90
23010;DHT22;11671;49.990;8.028;2023-02-28T03:54:51;0.90;99.90
23010;DHT22;11671;49.990;8.028;2023-02-28T04:00:19;1.00;99.90
23010;DHT22;11671;49.990;8.028;2023-02-28T04:02:46;0.90;99.90
23010;DHT22;11671;49.990;8.028;2023-02-28T04:05:19;0.90;99.90
23010;DHT22;11671;49.990;8.028;2023-02-28T04:07:44;0.90;99.90
23010;DHT22;11671;49.990;8.028;2023-02-28T04:10:12;0.90;99.90
23010;DHT22;11671;49.990;8.028;2023-02-28T04:12:38;0.90;99.90
23010;DHT22;11671;49.990;8.028;2023-02-28T04:15:04;0.90;99.90
23010;DHT22;11671;49.990;8.028;2023-02-28T04:17:30;0.90;99.90
23010;DHT22;11671;49.990;8.028;2023-02-28T04:19:55;0.90;99.90
23010;DHT22;11671;49.990;8.028;2023-02-28T04:22:22;0.90;99.90
23010;DHT22;11671;49.990;8.028;2023-02-28T04:24:51;0.90;99.90
23010;DHT22;11671;49.990;8.028;2023-02-28T04:27:16;0.90;99.90
23010;DHT22;11671;49.990;8.028;2023-02-28T04:29:42;1.00;99.90
23010;DHT22;11671;49.990;8.028;2023-02-28T04:32:10;1.00;99.90
23010;DHT22;11671;49.990;8.028;2023-02-28T04:34:36;1.00;99.90
23010;DHT22;11671;49.990;8.028;2023-02-28T04:37:02;1.00;99.90
23010;DHT22;11671;49.990;8.028;2023-02-28T04:39:28;1.00;99.90
23010;DHT22;11671;49.990;8.028;2023-02-28T04:41:55;1.00;99.90
23010;DHT22;11671;49.990;8.028;2023-02-28T04:44:21;1.00;99.90
23010;DHT22;11671;49.990;8.028;2023-02-28T04:46:48;0.90;99.90
23010;DHT22;11671;49.990;8.028;2023-02-28T04:49:15;0.90;99.90
23010;DHT22;11671;49.990;8.028;2023-02-28T04:51:41;0.90;99.90
23010;DHT22;11671;49.990;8.028;2023-02-28T04:54:07;0.80;99.90
23010;DHT22;11671;49.990;8.028;2023-02-28T04:56:33;0.80;99.90
23010;DHT22;11671;49.990;8.028;2023-02-28T04:58:58;0.80;99.90
23010;DHT22;11671;49.990;8.028;2023-02-28T05:01:28;0.80;99.90
23010;DHT22;11671;49.990;8.028;2023-02-28T05:03:56;0.80;99.90
23010;DHT22;11671;49.990;8.028;2023-02-28T05:06:24;0.80;99.90
23010;DHT22;11671;49.990;8.028;2023-02-28T05:08:51;0.80;99.90
23010;DHT22;11671;49.990;8.028;2023-02-28T05:11:26;0.70;99.90
23010;DHT22;11671;49.990;8.028;2023-02-28T05:13:52;0.70;99.90
23010;DHT22;11671;49.990;8.028;2023-02-28T05:16:19;0.70;99.90
23010;DHT22;11671;49.990;8.028;2023-02-28T05:18:45;0.70;99.90
23010;DHT22;11671;49.990;8.028;2023-02-28T05:21:40;0.70;99.90
23010;DHT22;11671;49.990;8.028;2023-02-28T05:24:09;0.80;99.90
23010;DHT22;11671;49.990;8.028;2023-02-28T05:26:38;0.80;99.90
23010;DHT22;11671;49.990;8.028;2023-02-28T05:29:04;0.80;99.90
23010;DHT22;11671;49.990;8.028;2023-02-28T05:31:30;0.80;99.90
23010;DHT22;11671;49.990;8.028;2023-02-28T05:33:56;0.80;99.90
23010;DHT22;11671;49.990;8.028;2023-02-28T05:36:22;0.80;99.90
23010;DHT22;11671;49.990;8.028;2023-02-28T05:38:49;0.80;99.90
23010;DHT22;11671;49.990;8.028;2023-02-28T05:41:15;0.80;99.90
23010;DHT22;11671;49.990;8.028;2023-02-28T05:43:41;0.90;99.90
23010;DHT22;11671;49.990;8.028;2023-02-28T05:46:08;0.90;99.90
23010;DHT22;11671;49.990;8.028;2023-02-28T05:48:35;0.90;99.90
23010;DHT22;11671;49.990;8.028;2023-02-28T05:51:02;0.80;99.90
23010;DHT22;11671;49.990;8.028;2023-02-28T05:53:28;0.80;99.90
23010;DHT22;11671;49.990;8.028;2023-02-28T05:55:54;0.80;99.90
23010;DHT22;11671;49.990;8.028;2023-02-28T05:58:20;0.80;99.90
23010;DHT22;11671;49.990;8.028;2023-02-28T06:00:46;0.70;99.90
23010;DHT22;11671;49.990;8.028;2023-02-28T06:03:12;0.70;99.90
23010;DHT22;11671;49.990;8.028;2023-02-28T06:05:37;0.80;99.90
23010;DHT22;11671;49.990;8.028;2023-02-28T06:08:04;0.80;99.90
23010;DHT22;11671;49.990;8.028;2023-02-28T06:10:32;0.80;99.90
23010;DHT22;11671;49.990;8.028;2023-02-28T06:13:03;0.80;99.90
23010;DHT22;11671;49.990;8.028;2023-02-28T06:15:28;0.80;99.90
23010;DHT22;11671;49.990;8.028;2023-02-28T06:17:55;0.80;99.90
23010;DHT22;11671;49.990;8.028;2023-02-28T06:20:25;0.80;99.90
23010;DHT22;11671;49.990;8.028;2023-02-28T06:22:51;0.80;99.90
23010;DHT22;11671;49.990;8.028;2023-02-28T06:25:19;0.80;99.90
23010;DHT22;11671;49.990;8.028;2023-02-28T06:27:45;0.80;99.90
23010;DHT22;11671;49.990;8.028;2023-02-28T06:30:11;0.80;99.90
23010;DHT22;11671;49.990;8.028;2023-02-28T06:32:37;0.80;99.90
23010;DHT22;11671;49.990;8.028;2023-02-28T06:35:03;0.80;99.90
23010;DHT22;11671;49.990;8.028;2023-02-28T06:37:31;0.90;99.90
23010;DHT22;11671;49.990;8.028;2023-02-28T06:39:56;0.90;99.90
23010;DHT22;11671;49.990;8.028;2023-02-28T06:42:23;0.90;99.90
23010;DHT22;11671;49.990;8.028;2023-02-28T06:44:54;1.00;99.90
23010;DHT22;11671;49.990;8.028;2023-02-28T06:47:20;1.00;99.90
23010;DHT22;11671;49.990;8.028;2023-02-28T06:49:46;1.00;99.90
23010;DHT22;11671;49.990;8.028;2023-02-28T06:52:11;1.00;99.90
23010;DHT22;11671;49.990;8.028;2023-02-28T06:54:37;1.10;99.90
23010;DHT22;11671;49.990;8.028;2023-02-28T06:57:03;1.20;99.90
23010;DHT22;11671;49.990;8.028;2023-02-28T06:59:28;1.30;99.90
23010;DHT22;11671;49.990;8.028;2023-02-28T07:01:54;1.30;99.90
23010;DHT22;11671;49.990;8.028;2023-02-28T07:04:21;1.40;99.90
23010;DHT22;11671;49.990;8.028;2023-02-28T07:06:47;1.50;99.90
23010;DHT22;11671;49.990;8.028;2023-02-28T07:09:12;1.60;99.90
23010;DHT22;11671;49.990;8.028;2023-02-28T07:11:39;1.70;99.90
23010;DHT22;11671;49.990;8.028;2023-02-28T07:14:06;1.70;99.90
23010;DHT22;11671;49.990;8.028;2023-02-28T07:16:31;1.80;99.90
23010;DHT22;11671;49.990;8.028;2023-02-28T07:18:57;1.80;99.90
23010;DHT22;11671;49.990;8.028;2023-02-28T07:21:23;1.90;99.90
23010;DHT22;11671;49.990;8.028;2023-02-28T07:23:49;1.90;99.90
23010;DHT22;11671;49.990;8.028;2023-02-28T07:26:16;1.90;99.90
23010;DHT22;11671;49.990;8.028;2023-02-28T07:28:43;2.00;99.90
23010;DHT22;11671;49.990;8.028;2023-02-28T07:31:10;2.10;99.90
23010;DHT22;11671;49.990;8.028;2023-02-28T07:33:36;2.10;99.90
23010;DHT22;11671;49.990;8.028;2023-02-28T07:36:05;2.20;99.90
23010;DHT22;11671;49.990;8.028;2023-02-28T07:38:34;2.20;99.90
23010;DHT22;11671;49.990;8.028;2023-02-28T07:40:59;2.30;99.90
23010;DHT22;11671;49.990;8.028;2023-02-28T07:43:25;2.40;99.90
23010;DHT22;11671;49.990;8.028;2023-02-28T07:45:50;2.40;99.90
23010;DHT22;11671;49.990;8.028;2023-02-28T07:48:16;2.50;99.90
23010;DHT22;11671;49.990;8.028;2023-02-28T07:50:42;2.50;99.90
23010;DHT22;11671;49.990;8.028;2023-02-28T07:53:07;2.70;99.90
23010;DHT22;11671;49.990;8.028;2023-02-28T07:55:33;2.80;99.90
23010;DHT22;11671;49.990;8.028;2023-02-28T07:57:58;2.90;99.90
23010;DHT22;11671;49.990;8.028;2023-02-28T08:00:25;2.90;99.90
23010;DHT22;11671;49.990;8.028;2023-02-28T08:02:50;3.10;99.90
23010;DHT22;11671;49.990;8.028;2023-02-28T08:05:16;3.10;99.90
23010;DHT22;11671;49.990;8.028;2023-02-28T08:07:43;3.20;99.90
23010;DHT22;11671;49.990;8.028;2023-02-28T08:10:09;4.00;99.90
23010;DHT22;11671;49.990;8.028;2023-02-28T08:12:35;4.50;99.90
23010;DHT22;11671;49.990;8.028;2023-02-28T08:15:01;4.90;99.90
23010;DHT22;11671;49.990;8.028;2023-02-28T08:17:27;5.20;99.90
23010;DHT22;11671;49.990;8.028;2023-02-28T08:19:52;5.10;99.90
23010;DHT22;11671;49.990;8.028;2023-02-28T08:22:18;5.30;99.90
23010;DHT22;11671;49.990;8.028;2023-02-28T08:24:44;5.70;99.90
23010;DHT22;11671;49.990;8.028;2023-02-28T08:27:09;5.60;99.90
23010;DHT22;11671;49.990;8.028;2023-02-28T08:29:37;5.70;99.90
23010;DHT22;11671;49.990;8.028;2023-02-28T08:32:04;5.80;99.90
23010;DHT22;11671;49.990;8.028;2023-02-28T08:34:30;5.30;99.90
23010;DHT22;11671;49.990;8.028;2023-02-28T08:36:55;5.10;99.90
23010;DHT22;11671;49.990;8.028;2023-02-28T08:39:21;4.80;99.90
23010;DHT22;11671;49.990;8.028;2023-02-28T08:41:46;4.90;99.90
23010;DHT22;11671;49.990;8.028;2023-02-28T08:44:12;5.10;99.90
23010;DHT22;11671;49.990;8.028;2023-02-28T08:46:38;5.10;99.90
23010;DHT22;11671;49.990;8.028;2023-02-28T08:49:03;4.90;99.90
23010;DHT22;11671;49.990;8.028;2023-02-28T08:51:29;4.60;99.90
23010;DHT22;11671;49.990;8.028;2023-02-28T08:53:58;4.50;99.90
23010;DHT22;11671;49.990;8.028;2023-02-28T08:56:26;4.30;99.90
23010;DHT22;11671;49.990;8.028;2023-02-28T08:58:54;4.20;99.90
23010;DHT22;11671;49.990;8.028;2023-02-28T09:01:28;4.30;99.90
23010;DHT22;11671;49.990;8.028;2023-02-28T09:03:54;4.50;99.90
23010;DHT22;11671;49.990;8.028;2023-02-28T09:06:23;4.50;99.90
23010;DHT22;11671;49.990;8.028;2023-02-28T09:08:49;4.50;99.90
23010;DHT22;11671;49.990;8.028;2023-02-28T09:11:15;4.40;99.90
23010;DHT22;11671;49.990;8.028;2023-02-28T09:13:41;4.60;99.90
23010;DHT22;11671;49.990;8.028;2023-02-28T09:16:08;4.60;99.90
23010;DHT22;11671;49.990;8.028;2023-02-28T09:18:36;4.50;99.90
23010;DHT22;11671;49.990;8.028;2023-02-28T09:21:06;4.30;99.90
23010;DHT22;11671;49.990;8.028;2023-02-28T09:23:32;4.60;99.90
23010;DHT22;11671;49.990;8.028;2023-02-28T09:25:58;4.80;99.90
23010;DHT22;11671;49.990;8.028;2023-02-28T09:28:24;5.00;99.90
23010;DHT22;11671;49.990;8.028;2023-02-28T09:30:52;5.40;99.90
23010;DHT22;11671;49.990;8.028;2023-02-28T09:33:19;5.70;99.90
23010;DHT22;11671;49.990;8.028;2023-02-28T09:35:49;5.80;99.90
23010;DHT22;11671;49.990;8.028;2023-02-28T09:38:15;5.70;99.90
23010;DHT22;11671;49.990;8.028;2023-02-28T09:40:53;5.80;99.90
23010;DHT22;11671;49.990;8.028;2023-02-28T09:43:22;5.70;99.90
23010;DHT22;11671;49.990;8.028;2023-02-28T09:45:54;5.70;99.90
23010;DHT22;11671;49.990;8.028;2023-02-28T09:48:32;5.50;99.90
23010;DHT22;11671;49.990;8.028;2023-02-28T09:51:14;5.30;99.90
23010;DHT22;11671;49.990;8.028;2023-02-28T09:53:41;5.20;99.90
23010;DHT22;11671;49.990;8.028;2023-02-28T09:56:10;5.40;99.90
23010;DHT22;11671;49.990;8.028;2023-02-28T09:58:51;5.60;99.90
23010;DHT22;11671;49.990;8.028;2023-02-28T10:01:27;5.70;99.90
23010;DHT22;11671;49.990;8.028;2023-02-28T10:04:03;5.70;99.90
23010;DHT22;11671;49.990;8.028;2023-02-28T10:06:41;5.80;99.90
23010;DHT22;11671;49.990;8.028;2023-02-28T10:09:29;5.90;99.90
23010;DHT22;11671;49.990;8.028;2023-02-28T10:12:00;5.90;99.90
23010;DHT22;11671;49.990;8.028;2023-02-28T10:14:29;5.90;99.90
23010;DHT22;11671;49.990;8.028;2023-02-28T10:16:59;6.00;99.90
23010;DHT22;11671;49.990;8.028;2023-02-28T10:22:36;5.80;99.90
23010;DHT22;11671;49.990;8.028;2023-02-28T10:25:25;5.60;99.90
23010;DHT22;11671;49.990;8.028;2023-02-28T10:27:58;5.60;99.90
23010;DHT22;11671;49.990;8.028;2023-02-28T10:30:26;5.50;99.90
23010;DHT22;11671;49.990;8.028;2023-02-28T10:32:53;5.40;99.90
23010;DHT22;11671;49.990;8.028;2023-02-28T10:35:23;5.50;99.90
23010;DHT22;11671;49.990;8.028;2023-02-28T10:37:55;5.50;99.90
23010;DHT22;11671;49.990;8.028;2023-02-28T10:43:47;5.80;99.90
23010;DHT22;11671;49.990;8.028;2023-02-28T10:46:15;6.20;99.90
23010;DHT22;11671;49.990;8.028;2023-02-28T10:49:12;6.30;99.90
23010;DHT22;11671;49.990;8.028;2023-02-28T10:51:40;6.00;99.90
23010;DHT22;11671;49.990;8.028;2023-02-28T10:54:36;5.70;99.90
23010;DHT22;11671;49.990;8.028;2023-02-28T10:57:20;5.50;99.90
23010;DHT22;11671;49.990;8.028;2023-02-28T10:59:51;5.50;99.90
23010;DHT22;11671;49.990;8.028;2023-02-28T11:02:36;5.60;99.90
23010;DHT22;11671;49.990;8.028;2023-02-28T11:05:37;5.60;99.90
23010;DHT22;11671;49.990;8.028;2023-02-28T11:08:14;6.00;99.90
23010;DHT22;11671;49.990;8.028;2023-02-28T11:10:53;6.10;99.90
23010;DHT22;11671;49.990;8.028;2023-02-28T11:13:27;6.50;99.90
23010;DHT22;11671;49.990;8.028;2023-02-28T11:15:59;6.30;99.90
23010;DHT22;11671;49.990;8.028;2023-02-28T11:18:30;6.70;99.90
23010;DHT22;11671;49.990;8.028;2023-02-28T11:20:58;6.70;99.90
23010;DHT22;11671;49.990;8.028;2023-02-28T11:23:27;6.50;99.90
23010;DHT22;11671;49.990;8.028;2023-02-28T11:25:58;6.50;99.90
23010;DHT22;11671;49.990;8.028;2023-02-28T11:28:39;6.60;99.90
23010;DHT22;11671;49.990;8.028;2023-02-28T11:38:46;7.20;99.90
23010;DHT22;11671;49.990;8.028;2023-02-28T11:46:52;7.00;99.90
23010;DHT22;11671;49.990;8.028;2023-02-28T11:50:16;7.10;99.90
23010;DHT22;11671;49.990;8.028;2023-02-28T11:52:53;7.40;99.90
23010;DHT22;11671;49.990;8.028;2023-02-28T11:55:42;7.50;99.90
23010;DHT22;11671;49.990;8.028;2023-02-28T12:04:03;7.90;99.90
23010;DHT22;11671;49.990;8.028;2023-02-28T12:06:40;7.50;99.90
23010;DHT22;11671;49.990;8.028;2023-02-28T12:09:27;7.10;99.90
23010;DHT22;11671;49.990;8.028;2023-02-28T12:18:05;6.50;99.90
23010;DHT22;11671;49.990;8.028;2023-02-28T12:20:37;6.50;99.90
23010;DHT22;11671;49.990;8.028;2023-02-28T12:23:47;6.10;99.90
23010;DHT22;11671;49.990;8.028;2023-02-28T12:26:41;6.20;99.90
23010;DHT22;11671;49.990;8.028;2023-02-28T12:29:26;6.40;99.90
23010;DHT22;11671;49.990;8.028;2023-02-28T12:34:43;6.50;99.90
23010;DHT22;11671;49.990;8.028;2023-02-28T12:37:25;6.90;99.90
23010;DHT22;11671;49.990;8.028;2023-02-28T12:40:02;6.80;99.90
23010;DHT22;11671;49.990;8.028;2023-02-28T12:42:33;7.10;99.90
23010;DHT22;11671;49.990;8.028;2023-02-28T12:45:08;6.80;99.90
23010;DHT22;11671;49.990;8.028;2023-02-28T12:47:35;7.10;99.90
23010;DHT22;11671;49.990;8.028;2023-02-28T12:50:08;7.60;99.90
23010;DHT22;11671;49.990;8.028;2023-02-28T12:52:59;7.70;99.90
23010;DHT22;11671;49.990;8.028;2023-02-28T12:56:35;7.70;99.90
23010;DHT22;11671;49.990;8.028;2023-02-28T12:58:41;7.50;99.90
23010;DHT22;11671;49.990;8.028;2023-02-28T13:09:20;7.90;99.90
23010;DHT22;11671;49.990;8.028;2023-02-28T13:11:51;8.10;99.90
23010;DHT22;11671;49.990;8.028;2023-02-28T13:19:34;8.20;98.80
23010;DHT22;11671;49.990;8.028;2023-02-28T13:22:01;8.20;99.40
23010;DHT22;11671;49.990;8.028;2023-02-28T13:27:10;8.50;97.70
23010;DHT22;11671;49.990;8.028;2023-02-28T13:29:41;8.50;98.30
23010;DHT22;11671;49.990;8.028;2023-02-28T13:34:46;8.80;97.70
23010;DHT22;11671;49.990;8.028;2023-02-28T13:39:59;8.80;98.20
23010;DHT22;11671;49.990;8.028;2023-02-28T13:42:36;8.70;96.70
23010;DHT22;11671;49.990;8.028;2023-02-28T13:47:44;8.20;97.20
23010;DHT22;11671;49.990;8.028;2023-02-28T13:50:50;7.90;97.50
23010;DHT22;11671;49.990;8.028;2023-02-28T13:53:24;7.50;98.00
23010;DHT22;11671;49.990;8.028;2023-02-28T13:56:21;7.70;98.50
23010;DHT22;11671;49.990;8.028;2023-02-28T14:04:12;8.10;98.40
23010;DHT22;11671;49.990;8.028;2023-02-28T14:06:52;8.40;98.30
23010;DHT22;11671;49.990;8.028;2023-02-28T14:11:49;8.10;97.90
23010;DHT22;11671;49.990;8.028;2023-02-28T14:16:59;8.20;98.00
23010;DHT22;11671;49.990;8.028;2023-02-28T14:19:29;8.10;97.20
23010;DHT22;11671;49.990;8.028;2023-02-28T14:22:02;8.10;97.90
23010;DHT22;11671;49.990;8.028;2023-02-28T14:36:08;8.10;98.60
23010;DHT22;11671;49.990;8.028;2023-02-28T14:38:53;8.20;98.40
23010;DHT22;11671;49.990;8.028;2023-02-28T14:43:56;8.30;97.60
23010;DHT22;11671;49.990;8.028;2023-02-28T14:46:28;8.40;97.70
23010;DHT22;11671;49.990;8.028;2023-02-28T14:48:55;8.20;98.10
23010;DHT22;11671;49.990;8.028;2023-02-28T14:51:22;8.10;98.80
23010;DHT22;11671;49.990;8.028;2023-02-28T14:53:56;8.10;98.20
23010;DHT22;11671;49.990;8.028;2023-02-28T14:56:37;8.00;98.10
23010;DHT22;11671;49.990;8.028;2023-02-28T14:59:05;7.80;98.30
23010;DHT22;11671;49.990;8.028;2023-02-28T15:01:31;7.80;99.00
23010;DHT22;11671;49.990;8.028;2023-02-28T15:04:03;7.80;99.80
23010;DHT22;11671;49.990;8.028;2023-02-28T15:06:30;7.50;99.50
23010;DHT22;11671;49.990;8.028;2023-02-28T15:09:13;7.40;99.90
23010;DHT22;11671;49.990;8.028;2023-02-28T15:11:39;7.60;99.90
23010;DHT22;11671;49.990;8.028;2023-02-28T15:14:06;7.60;99.90
23010;DHT22;11671;49.990;8.028;2023-02-28T15:16:35;7.70;99.90
23010;DHT22;11671;49.990;8.028;2023-02-28T15:19:24;7.60;99.90
23010;DHT22;11671;49.990;8.028;2023-02-28T15:22:00;7.50;99.90
23010;DHT22;11671;49.990;8.028;2023-02-28T15:24:49;7.50;99.90
23010;DHT22;11671;49.990;8.028;2023-02-28T15:27:25;7.40;99.90
23010;DHT22;11671;49.990;8.028;2023-02-28T15:30:07;7.40;99.90
23010;DHT22;11671;49.990;8.028;2023-02-28T15:32:34;7.40;99.90
23010;DHT22;11671;49.990;8.028;2023-02-28T15:37:48;7.30;99.90
23010;DHT22;11671;49.990;8.028;2023-02-28T15:40:30;7.20;99.90
23010;DHT22;11671;49.990;8.028;2023-02-28T15:43:17;7.20;99.90
23010;DHT22;11671;49.990;8.028;2023-02-28T15:45:48;7.30;99.90
23010;DHT22;11671;49.990;8.028;2023-02-28T15:50:43;7.40;99.90
23010;DHT22;11671;49.990;8.028;2023-02-28T15:53:22;7.30;99.90
23010;DHT22;11671;49.990;8.028;2023-02-28T15:56:02;7.30;99.90
23010;DHT22;11671;49.990;8.028;2023-02-28T15:58:29;7.20;99.90
23010;DHT22;11671;49.990;8.028;2023-02-28T16:01:08;7.20;99.90
23010;DHT22;11671;49.990;8.028;2023-02-28T16:03:47;7.30;99.90
23010;DHT22;11671;49.990;8.028;2023-02-28T16:06:26;7.30;99.90
23010;DHT22;11671;49.990;8.028;2023-02-28T16:08:56;7.40;99.90
23010;DHT22;11671;49.990;8.028;2023-02-28T16:11:21;7.40;99.90
23010;DHT22;11671;49.990;8.028;2023-02-28T16:13:47;7.30;99.90
23010;DHT22;11671;49.990;8.028;2023-02-28T16:16:23;7.30;99.90
23010;DHT22;11671;49.990;8.028;2023-02-28T16:18:50;7.20;99.90
23010;DHT22;11671;49.990;8.028;2023-02-28T16:21:16;7.10;99.90
23010;DHT22;11671;49.990;8.028;2023-02-28T16:23:42;7.10;99.90
23010;DHT22;11671;49.990;8.028;2023-02-28T16:26:08;7.10;99.90
23010;DHT22;11671;49.990;8.028;2023-02-28T16:28:36;7.00;99.90
23010;DHT22;11671;49.990;8.028;2023-02-28T16:31:05;6.90;99.90
23010;DHT22;11671;49.990;8.028;2023-02-28T16:33:32;6.90;99.90
23010;DHT22;11671;49.990;8.028;2023-02-28T16:35:59;6.80;99.90
23010;DHT22;11671;49.990;8.028;2023-02-28T16:38:25;6.60;99.90
23010;DHT22;11671;49.990;8.028;2023-02-28T16:40:53;6.60;99.90
23010;DHT22;11671;49.990;8.028;2023-02-28T16:43:23;6.60;99.90
23010;DHT22;11671;49.990;8.028;2023-02-28T16:45:55;6.60;99.90
23010;DHT22;11671;49.990;8.028;2023-02-28T16:48:21;6.60;99.90
23010;DHT22;11671;49.990;8.028;2023-02-28T16:50:47;6.60;99.90
23010;DHT22;11671;49.990;8.028;2023-02-28T16:53:13;6.50;99.90
23010;DHT22;11671;49.990;8.028;2023-02-28T16:55:38;6.50;99.90
23010;DHT22;11671;49.990;8.028;2023-02-28T16:58:04;6.50;99.90
23010;DHT22;11671;49.990;8.028;2023-02-28T17:00:30;6.30;99.90
23010;DHT22;11671;49.990;8.028;2023-02-28T17:02:57;6.20;99.90
23010;DHT22;11671;49.990;8.028;2023-02-28T17:05:25;6.10;99.90
23010;DHT22;11671;49.990;8.028;2023-02-28T17:07:51;6.00;99.90
23010;DHT22;11671;49.990;8.028;2023-02-28T17:10:18;6.00;99.90
23010;DHT22;11671;49.990;8.028;2023-02-28T17:12:44;6.00;99.90
23010;DHT22;11671;49.990;8.028;2023-02-28T17:15:10;5.90;99.90
23010;DHT22;11671;49.990;8.028;2023-02-28T17:17:37;5.80;99.90
23010;DHT22;11671;49.990;8.028;2023-02-28T17:20:03;5.80;99.90
23010;DHT22;11671;49.990;8.028;2023-02-28T17:22:30;5.80;99.90
23010;DHT22;11671;49.990;8.028;2023-02-28T17:24:55;5.70;99.90
23010;DHT22;11671;49.990;8.028;2023-02-28T17:27:21;5.70;99.90
23010;DHT22;11671;49.990;8.028;2023-02-28T17:29:47;5.60;99.90
23010;DHT22;11671;49.990;8.028;2023-02-28T17:32:13;5.70;99.90
23010;DHT22;11671;49.990;8.028;2023-02-28T17:34:38;5.70;99.90
23010;DHT22;11671;49.990;8.028;2023-02-28T17:37:04;5.70;99.90
23010;DHT22;11671;49.990;8.028;2023-02-28T17:39:30;5.60;99.90
23010;DHT22;11671;49.990;8.028;2023-02-28T17:41:56;5.40;99.90
23010;DHT22;11671;49.990;8.028;2023-02-28T17:44:22;5.30;99.90
23010;DHT22;11671;49.990;8.028;2023-02-28T17:46:49;5.30;99.90
23010;DHT22;11671;49.990;8.028;2023-02-28T17:49:18;5.30;99.90
23010;DHT22;11671;49.990;8.028;2023-02-28T17:51:45;5.20;99.90
23010;DHT22;11671;49.990;8.028;2023-02-28T17:54:12;5.20;99.90
23010;DHT22;11671;49.990;8.028;2023-02-28T17:56:39;5.20;99.90
23010;DHT22;11671;49.990;8.028;2023-02-28T17:59:05;5.10;99.90
23010;DHT22;11671;49.990;8.028;2023-02-28T18:01:31;5.20;99.90